Time;durP1;ratioP1;P1;durP2;ratioP2;P2;SDS_P1;SDS_P2;PMS_P1;PMS_P2;Temp;Humidity;BMP_temperature;BMP_pressure;BME280_temperature;BME280_humidity;BME280_pressure;Samples;Min_cycle;Max_cycle;Signal;HPM_P1;HPM_P2
2023/01/26 00:00:54;;;;;;;60.03;20.35;;;2.50;99.90;;;;;;5049014;28;20065;-68
2023/01/26 00:03:20;;;;;;;71.35;18.40;;;2.50;99.90;;;;;;5050381;28;20021;-68
2023/01/26 00:05:46;;;;;;;58.13;17.33;;;2.60;99.90;;;;;;5046789;28;20045;-68
2023/01/26 00:08:12;;;;;;;52.80;16.70;;;2.60;99.90;;;;;;5049481;28;20029;-68
2023/01/26 00:10:40;;;;;;;55.78;18.70;;;2.70;99.90;;;;;;5047033;28;20748;-70
2023/01/26 00:13:07;;;;;;;51.80;17.38;;;2.70;99.90;;;;;;5051243;28;20040;-69
2023/01/26 00:15:34;;;;;;;60.60;18.23;;;2.70;99.90;;;;;;5046851;28;20033;-68
2023/01/26 00:18:00;;;;;;;55.17;17.00;;;2.70;99.90;;;;;;5060182;28;20041;-68
2023/01/26 00:20:27;;;;;;;53.05;18.13;;;2.70;99.90;;;;;;5069791;28;20032;-69
2023/01/26 00:22:53;;;;;;;58.92;17.90;;;2.70;99.90;;;;;;5070149;28;20040;-68
2023/01/26 00:25:19;;;;;;;53.35;16.90;;;2.80;99.90;;;;;;5061296;28;20036;-69
2023/01/26 00:27:44;;;;;;;86.65;22.35;;;2.70;99.90;;;;;;5059531;28;20028;-70
2023/01/26 00:30:10;;;;;;;47.25;15.30;;;2.70;99.90;;;;;;5039905;28;20028;-69
2023/01/26 00:32:36;;;;;;;62.38;18.83;;;2.70;99.90;;;;;;5062880;28;20099;-69
2023/01/26 00:35:02;;;;;;;65.40;19.25;;;2.60;99.90;;;;;;5062160;28;20369;-69
2023/01/26 00:37:28;;;;;;;55.00;17.48;;;2.60;99.90;;;;;;5062527;28;20025;-69
2023/01/26 00:39:57;;;;;;;56.95;19.80;;;2.60;99.90;;;;;;5060904;28;20042;-69
2023/01/26 00:42:23;;;;;;;57.67;17.92;;;2.60;99.90;;;;;;5058687;28;20450;-68
2023/01/26 00:44:49;;;;;;;63.92;17.60;;;2.70;99.90;;;;;;5060326;28;20044;-69
2023/01/26 00:47:16;;;;;;;70.95;18.05;;;2.70;99.90;;;;;;5060393;28;20392;-69
2023/01/26 00:49:42;;;;;;;65.05;18.77;;;2.70;99.90;;;;;;5063530;28;20025;-69
2023/01/26 00:52:08;;;;;;;53.80;17.33;;;2.70;99.90;;;;;;5062916;28;20033;-70
2023/01/26 00:54:34;;;;;;;58.42;18.98;;;2.60;99.90;;;;;;5063645;28;20029;-69
2023/01/26 00:57:00;;;;;;;59.15;18.27;;;2.70;99.90;;;;;;5053757;28;20096;-69
2023/01/26 00:59:26;;;;;;;47.67;15.05;;;2.80;99.90;;;;;;5057966;28;20025;-70
2023/01/26 01:01:52;;;;;;;55.50;19.20;;;2.80;99.90;;;;;;5050040;28;20075;-70
2023/01/26 01:04:18;;;;;;;68.15;18.63;;;2.80;99.90;;;;;;5067163;28;20025;-69
2023/01/26 01:06:44;;;;;;;57.95;18.05;;;2.80;99.90;;;;;;5053721;28;20044;-70
2023/01/26 01:09:09;;;;;;;61.60;18.98;;;2.80;99.90;;;;;;5057798;28;20029;-70
2023/01/26 01:11:35;;;;;;;63.53;19.73;;;2.70;99.90;;;;;;5052529;28;20485;-70
2023/01/26 01:14:01;;;;;;;51.90;16.55;;;2.80;99.90;;;;;;5061298;28;20365;-70
2023/01/26 01:16:30;;;;;;;90.30;22.13;;;2.80;99.90;;;;;;5072698;28;20028;-70
2023/01/26 01:18:56;;;;;;;53.20;18.65;;;2.80;99.90;;;;;;5066450;28;20136;-69
2023/01/26 01:21:22;;;;;;;60.20;17.65;;;2.80;99.90;;;;;;5066732;28;20031;-70
2023/01/26 01:23:48;;;;;;;53.00;19.00;;;2.80;99.90;;;;;;5063877;28;20039;-70
2023/01/26 01:26:14;;;;;;;56.10;18.17;;;2.80;99.90;;;;;;5065846;28;20036;-69
2023/01/26 01:28:41;;;;;;;57.55;18.65;;;2.90;99.90;;;;;;5065957;28;20029;-69
2023/01/26 01:31:12;;;;;;;56.08;17.58;;;2.90;99.90;;;;;;5064200;28;20036;-69
2023/01/26 01:33:38;;;;;;;65.90;19.10;;;3.00;99.90;;;;;;5067343;28;20043;-70
2023/01/26 01:36:06;;;;;;;58.53;19.73;;;3.00;99.90;;;;;;5066713;28;20028;-69
2023/01/26 01:38:32;;;;;;;64.55;19.35;;;3.10;99.90;;;;;;5041984;28;20472;-70
2023/01/26 01:40:58;;;;;;;57.55;18.92;;;3.20;99.90;;;;;;5059286;28;20487;-69
2023/01/26 01:43:25;;;;;;;56.42;18.27;;;3.20;99.90;;;;;;5065032;28;20025;-69
2023/01/26 01:45:52;;;;;;;57.03;19.02;;;3.20;99.90;;;;;;5065916;28;20516;-69
2023/01/26 01:48:41;;;;;;;88.40;21.52;;;3.20;99.90;;;;;;5069114;28;20021;-70
2023/01/26 01:51:26;;;;;;;60.85;19.25;;;3.20;99.90;;;;;;5052898;28;20098;-68
2023/01/26 01:53:55;;;;;;;54.80;18.70;;;3.30;99.90;;;;;;5069224;28;20037;-69
2023/01/26 01:56:24;;;;;;;61.15;20.50;;;3.40;99.90;;;;;;5056264;28;20039;-69
2023/01/26 01:58:53;;;;;;;71.18;21.17;;;3.40;99.90;;;;;;5072021;28;20472;-68
2023/01/26 02:01:18;;;;;;;60.97;17.50;;;3.40;99.90;;;;;;5062819;28;20048;-70
2023/01/26 02:03:47;;;;;;;60.25;18.92;;;3.40;99.90;;;;;;5066847;28;20036;-69
2023/01/26 02:06:21;;;;;;;54.58;17.92;;;3.40;99.90;;;;;;5064753;28;20027;-69
2023/01/26 02:08:50;;;;;;;56.03;19.23;;;3.40;99.90;;;;;;5051797;28;20506;-69
2023/01/26 02:11:23;;;;;;;57.20;19.00;;;3.40;99.90;;;;;;5065746;28;20074;-70
2023/01/26 02:13:49;;;;;;;50.97;19.30;;;3.40;99.90;;;;;;5070174;28;20059;-70
2023/01/26 02:16:16;;;;;;;54.75;20.08;;;3.40;99.90;;;;;;5065452;28;20031;-70
2023/01/26 02:18:42;;;;;;;55.33;18.15;;;3.40;99.90;;;;;;5067471;28;20041;-70
2023/01/26 02:21:12;;;;;;;55.03;18.77;;;3.50;99.90;;;;;;5068864;28;20032;-71
2023/01/26 02:24:05;;;;;;;50.05;17.98;;;3.40;99.90;;;;;;5047678;28;20515;-70
2023/01/26 02:26:35;;;;;;;59.15;20.90;;;3.40;99.90;;;;;;5067684;28;20037;-70
2023/01/26 02:29:03;;;;;;;50.30;16.80;;;3.40;99.90;;;;;;5062331;28;20468;-70
2023/01/26 02:31:30;;;;;;;58.72;19.88;;;3.40;99.90;;;;;;5058601;28;20536;-69
2023/01/26 02:33:55;;;;;;;54.90;19.20;;;3.50;99.90;;;;;;5067170;28;20048;-69
2023/01/26 02:36:25;;;;;;;51.08;18.63;;;3.50;99.90;;;;;;5062862;28;20408;-70
2023/01/26 02:39:18;;;;;;;56.05;19.55;;;3.50;99.90;;;;;;5051500;28;20036;-69
2023/01/26 02:44:30;;;;;;;55.65;18.88;;;3.50;99.90;;;;;;5064906;28;20472;-70
2023/01/26 02:46:56;;;;;;;112.95;26.95;;;3.60;99.90;;;;;;5071433;28;20078;-70
2023/01/26 02:52:06;;;;;;;56.55;19.00;;;3.60;99.90;;;;;;5071904;28;20415;-69
2023/01/26 02:57:16;;;;;;;54.13;18.60;;;3.70;99.90;;;;;;5067973;28;20032;-70
2023/01/26 02:59:41;;;;;;;52.97;19.55;;;3.70;99.90;;;;;;5051706;28;20017;-71
2023/01/26 03:02:07;;;;;;;58.03;18.20;;;3.80;99.90;;;;;;5065126;28;20068;-70
2023/01/26 03:04:33;;;;;;;57.17;18.73;;;3.80;99.90;;;;;;5073100;28;20112;-70
2023/01/26 03:06:58;;;;;;;51.88;18.33;;;3.80;99.90;;;;;;5070850;28;20465;-69
2023/01/26 03:09:24;;;;;;;55.85;19.77;;;3.90;99.90;;;;;;5075571;28;20104;-70
2023/01/26 03:11:50;;;;;;;52.88;17.75;;;3.90;99.90;;;;;;5064350;28;20033;-70
2023/01/26 03:14:16;;;;;;;51.22;18.15;;;4.00;99.90;;;;;;5067989;28;20388;-70
2023/01/26 03:16:42;;;;;;;52.10;18.40;;;4.10;99.90;;;;;;5055176;28;20021;-71
2023/01/26 03:27:26;;;;;;;55.15;18.45;;;4.30;99.90;;;;;;5044558;28;20071;-70
2023/01/26 03:29:52;;;;;;;47.40;18.73;;;4.30;99.90;;;;;;5055530;28;20095;-70
2023/01/26 03:32:18;;;;;;;44.88;15.95;;;4.30;99.90;;;;;;5053426;28;20029;-71
2023/01/26 03:34:44;;;;;;;47.28;17.20;;;4.40;99.90;;;;;;5055369;28;20048;-70
2023/01/26 03:37:09;;;;;;;48.15;17.45;;;4.40;99.90;;;;;;5050097;28;20091;-72
2023/01/26 03:56:16;;;;;;;49.60;16.70;;;4.50;99.90;;;;;;5042619;28;20039;-71
2023/01/26 03:58:46;;;;;;;44.22;16.92;;;4.60;99.90;;;;;;5049770;28;20409;-71
2023/01/26 04:01:18;;;;;;;46.72;17.60;;;4.60;99.90;;;;;;5041686;28;20124;-71
2023/01/26 04:09:18;;;;;;;45.85;16.73;;;4.70;99.90;;;;;;5038302;28;20087;-71
2023/01/26 04:11:44;;;;;;;44.33;15.27;;;4.70;99.90;;;;;;5052131;28;20118;-70
2023/01/26 04:22:25;;;;;;;41.47;13.07;;;4.90;99.90;;;;;;5064792;28;20541;-70
2023/01/26 04:24:50;;;;;;;44.60;13.82;;;5.00;99.90;;;;;;5053995;28;20120;-70
2023/01/26 04:27:16;;;;;;;41.67;12.93;;;5.00;99.90;;;;;;5054387;28;20013;-70
2023/01/26 04:29:41;;;;;;;102.43;18.00;;;5.10;99.90;;;;;;5054440;28;20465;-69
2023/01/26 04:32:07;;;;;;;35.17;11.00;;;5.20;99.90;;;;;;5065763;28;20526;-71
2023/01/26 04:34:32;;;;;;;39.30;11.88;;;5.30;99.90;;;;;;5072566;28;20047;-70
2023/01/26 04:36:58;;;;;;;35.20;9.23;;;5.40;99.90;;;;;;5073963;28;20029;-71
2023/01/26 04:39:23;;;;;;;42.42;11.30;;;5.50;99.90;;;;;;5073927;28;20526;-69
2023/01/26 04:41:49;;;;;;;38.53;9.50;;;5.50;99.90;;;;;;5065162;28;20536;-69
2023/01/26 04:44:15;;;;;;;30.60;8.50;;;5.60;99.90;;;;;;5072277;28;20508;-70
2023/01/26 04:46:41;;;;;;;33.00;8.70;;;5.70;99.90;;;;;;5072624;28;20087;-70
2023/01/26 04:49:07;;;;;;;24.70;7.35;;;5.80;99.90;;;;;;5065270;28;20464;-70
2023/01/26 04:51:33;;;;;;;50.70;10.77;;;5.80;99.90;;;;;;5058546;28;20025;-69
2023/01/26 04:53:58;;;;;;;35.30;9.63;;;5.90;99.90;;;;;;5073338;28;20097;-69
2023/01/26 04:56:33;;;;;;;140.77;18.65;;;6.00;99.90;;;;;;5072585;28;20017;-71
2023/01/26 04:59:01;;;;;;;36.55;7.47;;;6.00;99.90;;;;;;5057894;28;20094;-70
2023/01/26 05:01:27;;;;;;;31.85;6.72;;;6.10;99.90;;;;;;5061545;28;20027;-70
2023/01/26 05:03:52;;;;;;;34.22;8.30;;;6.10;99.90;;;;;;5073773;28;20037;-70
2023/01/26 05:06:18;;;;;;;32.55;7.75;;;6.20;99.90;;;;;;5073864;28;20071;-71
2023/01/26 05:08:44;;;;;;;23.20;6.35;;;6.30;99.90;;;;;;5071410;28;20487;-70
2023/01/26 05:11:09;;;;;;;26.92;5.57;;;6.30;99.90;;;;;;5068036;28;20024;-70
2023/01/26 05:13:36;;;;;;;22.17;4.07;;;6.30;99.90;;;;;;5073556;28;20037;-70
2023/01/26 05:16:03;;;;;;;27.48;5.47;;;6.40;99.90;;;;;;5073671;28;20078;-70
2023/01/26 05:18:29;;;;;;;28.38;4.90;;;6.40;99.90;;;;;;5061787;28;20049;-70
2023/01/26 05:20:55;;;;;;;27.80;4.22;;;6.50;99.90;;;;;;5052104;28;20033;-70
2023/01/26 05:23:21;;;;;;;29.58;5.80;;;6.50;99.90;;;;;;5053580;28;20527;-70
2023/01/26 05:25:47;;;;;;;29.17;5.15;;;6.60;99.90;;;;;;5053210;28;20035;-70
2023/01/26 05:28:12;;;;;;;29.10;4.03;;;6.60;99.90;;;;;;5051487;28;20040;-70
2023/01/26 05:30:38;;;;;;;28.60;3.40;;;6.60;99.90;;;;;;5052497;28;20037;-70
2023/01/26 05:33:06;;;;;;;25.52;3.70;;;6.60;99.90;;;;;;5033653;28;20033;-70
2023/01/26 05:35:32;;;;;;;29.27;4.13;;;6.60;99.90;;;;;;5049481;28;20035;-70
2023/01/26 05:37:58;;;;;;;21.25;3.53;;;6.70;99.90;;;;;;5045765;28;20039;-70
2023/01/26 05:40:24;;;;;;;23.00;3.42;;;6.70;99.90;;;;;;5033647;28;20527;-70
2023/01/26 05:42:50;;;;;;;26.27;4.00;;;6.70;99.90;;;;;;5052238;28;20036;-70
2023/01/26 05:45:16;;;;;;;19.77;3.72;;;6.70;99.90;;;;;;5053236;28;20068;-70
2023/01/26 05:47:43;;;;;;;28.10;3.75;;;6.70;99.90;;;;;;5051894;28;20061;-70
2023/01/26 05:50:10;;;;;;;26.38;4.32;;;6.70;99.90;;;;;;5047346;28;20033;-70
2023/01/26 05:52:36;;;;;;;27.80;3.50;;;6.80;99.90;;;;;;5042132;28;20036;-70
2023/01/26 05:55:02;;;;;;;29.33;4.10;;;6.70;99.90;;;;;;5041464;28;20022;-71
2023/01/26 05:57:27;;;;;;;26.92;3.25;;;6.80;99.90;;;;;;5041170;28;20024;-70
2023/01/26 05:59:53;;;;;;;32.05;3.95;;;6.70;99.90;;;;;;5038868;28;20021;-70
2023/01/26 06:02:19;;;;;;;29.98;4.05;;;6.80;99.90;;;;;;5040982;28;20021;-69
2023/01/26 06:04:44;;;;;;;22.58;3.78;;;6.70;99.90;;;;;;5041092;28;20029;-71
2023/01/26 06:07:12;;;;;;;24.85;3.28;;;6.70;99.90;;;;;;5041062;28;20396;-70
2023/01/26 06:09:38;;;;;;;22.80;3.92;;;6.70;99.90;;;;;;5042674;28;20392;-69
2023/01/26 06:12:05;;;;;;;25.23;3.13;;;6.60;99.90;;;;;;5041125;28;20516;-69
2023/01/26 06:14:30;;;;;;;23.52;3.13;;;6.60;99.90;;;;;;5042409;28;20115;-70
2023/01/26 06:16:56;;;;;;;30.42;4.03;;;6.60;99.90;;;;;;5042621;28;20064;-70
2023/01/26 06:19:21;;;;;;;21.73;3.72;;;6.60;99.90;;;;;;5061392;28;20053;-71
2023/01/26 06:21:47;;;;;;;24.80;4.35;;;6.60;99.90;;;;;;5062571;28;20100;-70
2023/01/26 06:24:13;;;;;;;20.30;3.45;;;6.60;99.90;;;;;;5060032;28;20021;-69
2023/01/26 06:26:38;;;;;;;29.42;4.85;;;6.70;99.90;;;;;;5061404;28;20033;-69
2023/01/26 06:29:05;;;;;;;32.53;5.20;;;6.70;99.90;;;;;;5043507;28;20049;-70
2023/01/26 06:31:31;;;;;;;26.40;4.32;;;6.70;99.90;;;;;;5060771;28;20115;-70
2023/01/26 06:33:57;;;;;;;28.98;4.05;;;6.70;99.90;;;;;;5060211;28;20075;-70
2023/01/26 06:36:22;;;;;;;22.58;3.58;;;6.60;99.90;;;;;;5062055;28;20049;-69
2023/01/26 06:38:49;;;;;;;20.83;3.83;;;6.60;99.90;;;;;;5063044;28;20039;-70
2023/01/26 06:41:16;;;;;;;14.75;3.00;;;6.60;99.90;;;;;;5068500;28;20033;-70
2023/01/26 06:43:47;;;;;;;23.77;3.15;;;6.60;99.90;;;;;;5068191;28;20112;-69
2023/01/26 06:46:13;;;;;;;27.65;3.80;;;6.60;99.90;;;;;;5068685;28;20039;-70
2023/01/26 06:48:38;;;;;;;28.20;3.67;;;6.50;99.90;;;;;;5068455;28;20115;-70
2023/01/26 06:51:28;;;;;;;21.98;2.67;;;6.50;99.90;;;;;;5066408;28;20346;-70
2023/01/26 06:53:55;;;;;;;27.13;5.15;;;6.40;99.90;;;;;;5067167;28;20045;-70
2023/01/26 06:56:22;;;;;;;23.65;3.38;;;6.40;99.90;;;;;;5067733;28;20023;-70
2023/01/26 06:58:48;;;;;;;21.02;3.70;;;6.30;99.90;;;;;;5069132;28;20082;-69
2023/01/26 07:01:19;;;;;;;26.83;2.95;;;6.30;99.90;;;;;;5067426;28;20040;-70
2023/01/26 07:03:47;;;;;;;20.25;3.00;;;6.20;99.90;;;;;;5065707;28;20037;-68
2023/01/26 07:06:13;;;;;;;26.85;3.13;;;6.20;99.90;;;;;;5068351;28;20387;-70
2023/01/26 07:08:39;;;;;;;28.98;2.90;;;6.10;99.90;;;;;;5067987;28;20131;-69
2023/01/26 07:11:05;;;;;;;24.55;3.30;;;6.10;99.90;;;;;;5068544;28;20032;-69
2023/01/26 07:13:31;;;;;;;22.20;4.03;;;6.10;99.90;;;;;;5066307;28;20029;-70
2023/01/26 07:16:05;;;;;;;26.90;3.70;;;6.00;99.90;;;;;;5067899;28;20042;-70
2023/01/26 07:18:31;;;;;;;23.05;3.20;;;6.00;99.90;;;;;;5065364;28;20068;-69
2023/01/26 07:21:05;;;;;;;31.27;3.70;;;6.00;99.90;;;;;;5068887;28;20067;-70
2023/01/26 07:23:31;;;;;;;22.90;4.13;;;6.00;99.90;;;;;;5048515;28;20083;-68
2023/01/26 07:25:57;;;;;;;19.95;3.22;;;5.90;99.90;;;;;;5068581;28;20025;-70
2023/01/26 07:28:24;;;;;;;20.35;2.78;;;5.90;99.90;;;;;;5067100;28;20093;-70
2023/01/26 07:30:50;;;;;;;26.63;3.50;;;5.90;99.90;;;;;;5065884;28;20021;-69
2023/01/26 07:33:17;;;;;;;26.83;3.13;;;5.90;99.90;;;;;;5067722;28;20079;-69
2023/01/26 07:35:42;;;;;;;24.75;3.28;;;5.90;99.90;;;;;;5066951;28;20090;-69
2023/01/26 07:38:08;;;;;;;33.60;5.35;;;5.90;99.90;;;;;;5065823;28;20480;-68
2023/01/26 07:40:33;;;;;;;23.65;3.63;;;5.90;99.90;;;;;;5065192;28;20024;-70
2023/01/26 07:42:59;;;;;;;23.23;3.35;;;5.90;99.90;;;;;;5067909;28;20507;-71
2023/01/26 07:45:26;;;;;;;30.95;3.97;;;5.80;99.90;;;;;;5068242;28;20020;-69
2023/01/26 07:47:56;;;;;;;30.70;4.22;;;5.80;99.90;;;;;;5068056;28;20499;-69
2023/01/26 07:50:24;;;;;;;28.13;3.28;;;5.80;99.90;;;;;;5064182;28;20108;-69
2023/01/26 07:52:52;;;;;;;22.65;3.22;;;5.80;99.90;;;;;;5045342;28;20037;-69
2023/01/26 07:55:22;;;;;;;23.77;2.95;;;5.80;99.90;;;;;;5064410;28;20047;-69
2023/01/26 07:57:48;;;;;;;26.50;3.30;;;5.80;99.90;;;;;;5063118;28;20123;-70
2023/01/26 08:00:14;;;;;;;24.10;3.42;;;5.80;99.90;;;;;;5065104;28;20436;-69
2023/01/26 08:02:40;;;;;;;27.33;3.33;;;5.80;99.90;;;;;;5061988;28;20056;-69
2023/01/26 08:05:06;;;;;;;24.73;3.47;;;5.80;99.90;;;;;;5064640;28;20048;-70
2023/01/26 08:07:31;;;;;;;24.35;4.35;;;5.80;99.90;;;;;;5060927;28;20024;-70
2023/01/26 08:09:58;;;;;;;23.90;3.50;;;5.80;99.90;;;;;;5064812;28;20052;-70
2023/01/26 08:12:23;;;;;;;25.30;4.18;;;5.80;99.90;;;;;;5063330;28;20395;-69
2023/01/26 08:14:49;;;;;;;25.63;3.03;;;5.80;99.90;;;;;;5062853;28;20051;-71
2023/01/26 08:17:16;;;;;;;23.17;3.10;;;5.90;99.90;;;;;;5062144;28;20029;-69
2023/01/26 08:19:42;;;;;;;19.13;3.15;;;5.90;99.90;;;;;;5063167;28;20024;-70
2023/01/26 08:22:08;;;;;;;22.33;3.60;;;5.90;99.90;;;;;;5062576;28;20028;-71
2023/01/26 08:24:33;;;;;;;29.30;3.60;;;6.00;99.90;;;;;;5062980;28;20021;-70
2023/01/26 08:26:59;;;;;;;28.08;3.60;;;6.10;99.90;;;;;;5061372;28;20603;-70
2023/01/26 08:29:24;;;;;;;23.25;3.97;;;6.10;99.90;;;;;;5064728;28;20469;-71
2023/01/26 08:31:50;;;;;;;20.52;2.92;;;6.20;99.90;;;;;;5060844;28;20484;-70
2023/01/26 08:34:15;;;;;;;15.15;3.13;;;6.20;99.90;;;;;;5063912;28;20059;-71
2023/01/26 08:36:41;;;;;;;30.30;4.65;;;6.20;99.90;;;;;;5063299;28;20024;-71
2023/01/26 08:39:07;;;;;;;21.52;3.55;;;6.30;99.90;;;;;;5062261;28;20016;-71
2023/01/26 08:41:32;;;;;;;31.30;2.88;;;6.30;99.90;;;;;;5063203;28;20032;-71
2023/01/26 08:43:58;;;;;;;29.25;4.03;;;6.30;99.90;;;;;;5061623;28;20028;-70
2023/01/26 08:46:24;;;;;;;35.25;4.32;;;6.40;99.90;;;;;;5063807;28;20031;-71
2023/01/26 08:48:51;;;;;;;17.10;2.75;;;6.40;99.90;;;;;;5060585;28;20077;-69
2023/01/26 08:51:16;;;;;;;22.67;3.45;;;6.40;99.90;;;;;;5062447;28;20064;-69
2023/01/26 08:53:42;;;;;;;31.48;6.05;;;6.40;99.90;;;;;;5063655;28;20068;-71
2023/01/26 08:56:17;;;;;;;23.52;4.15;;;6.50;99.90;;;;;;5062962;28;20388;-71
2023/01/26 08:58:42;;;;;;;29.35;4.10;;;6.60;99.90;;;;;;5061977;28;20480;-69
2023/01/26 09:01:11;;;;;;;25.17;3.90;;;6.60;99.90;;;;;;5063621;28;20073;-69
2023/01/26 09:03:37;;;;;;;19.40;2.83;;;6.60;99.90;;;;;;5066109;28;20044;-71
2023/01/26 09:06:05;;;;;;;20.08;3.50;;;6.70;99.90;;;;;;5063346;28;20104;-70
2023/01/26 09:08:32;;;;;;;19.98;2.92;;;6.80;99.90;;;;;;5070000;28;20032;-70
2023/01/26 09:10:58;;;;;;;20.20;3.17;;;6.80;99.90;;;;;;5066677;28;20431;-70
2023/01/26 09:13:24;;;;;;;13.82;2.25;;;6.90;99.90;;;;;;5062995;28;20416;-69
2023/01/26 09:15:50;;;;;;;19.88;2.70;;;6.90;99.90;;;;;;5067096;28;20044;-69
2023/01/26 09:18:16;;;;;;;19.20;4.75;;;7.00;99.90;;;;;;5061280;28;20055;-70
2023/01/26 09:20:43;;;;;;;24.58;3.20;;;7.00;99.90;;;;;;5047736;28;20024;-71
2023/01/26 09:23:11;;;;;;;19.10;3.85;;;7.10;99.90;;;;;;5050013;28;21653;-70
2023/01/26 09:25:38;;;;;;;18.92;3.75;;;7.10;99.90;;;;;;5049216;28;20469;-69
2023/01/26 09:28:07;;;;;;;13.95;2.53;;;7.20;99.90;;;;;;5044956;28;20028;-70
2023/01/26 09:30:33;;;;;;;14.50;2.97;;;7.30;99.90;;;;;;5043925;28;20053;-71
2023/01/26 09:32:59;;;;;;;21.63;2.97;;;7.40;99.90;;;;;;5044830;28;20110;-71
2023/01/26 09:35:26;;;;;;;20.83;3.17;;;7.50;99.90;;;;;;5044401;28;20087;-70
2023/01/26 09:37:53;;;;;;;18.05;2.17;;;7.60;99.90;;;;;;5044497;28;20029;-71
2023/01/26 09:40:27;;;;;;;23.52;3.05;;;7.70;99.90;;;;;;5044621;28;20083;-71
2023/01/26 09:43:19;;;;;;;22.77;3.20;;;7.80;99.90;;;;;;5043685;28;20078;-70
2023/01/26 09:46:11;;;;;;;18.75;2.58;;;8.00;99.90;;;;;;5037768;28;20063;-71
2023/01/26 09:48:41;;;;;;;;;;;8.30;99.90;;;;;;5040180;28;20029;-69
2023/01/26 09:51:25;;;;;;;22.33;3.03;;;8.70;99.90;;;;;;5041403;28;19905;-71
2023/01/26 09:54:09;;;;;;;14.95;2.28;;;9.10;99.90;;;;;;5041028;28;20061;-69
2023/01/26 09:56:34;;;;;;;16.10;2.55;;;9.50;99.90;;;;;;5039398;28;20390;-71
2023/01/26 09:59:11;;;;;;;11.13;1.90;;;9.90;99.90;;;;;;5048751;28;20029;-71
2023/01/26 10:01:47;;;;;;;13.60;2.00;;;10.40;99.90;;;;;;5039928;28;20469;-71
2023/01/26 10:04:32;;;;;;;16.52;3.20;;;10.80;99.90;;;;;;5042249;28;20056;-70
2023/01/26 10:07:00;;;;;;;12.27;1.95;;;10.70;99.90;;;;;;5040588;28;20476;-72
2023/01/26 10:09:32;;;;;;;19.17;2.67;;;11.10;99.90;;;;;;5042233;28;20021;-70
2023/01/26 10:12:01;;;;;;;16.40;2.90;;;11.40;99.90;;;;;;5040991;28;20099;-71
2023/01/26 10:14:45;;;;;;;17.77;2.28;;;11.90;99.90;;;;;;5039338;28;20052;-71
2023/01/26 10:17:35;;;;;;;15.80;2.33;;;12.40;99.90;;;;;;5041656;28;20036;-71
2023/01/26 10:20:23;;;;;;;15.52;2.22;;;12.90;99.90;;;;;;5052103;28;20503;-72
2023/01/26 10:22:52;;;;;;;16.50;2.35;;;13.30;99.90;;;;;;5058856;28;20396;-71
2023/01/26 10:25:28;;;;;;;12.02;2.53;;;13.80;99.90;;;;;;5060613;28;20025;-70
2023/01/26 10:27:54;;;;;;;22.27;2.85;;;14.40;99.90;;;;;;5061368;28;20032;-72
2023/01/26 10:30:20;;;;;;;23.15;3.30;;;14.40;99.90;;;;;;5061346;28;20037;-70
2023/01/26 10:32:57;;;;;;;20.45;2.58;;;13.90;99.90;;;;;;5041116;28;20466;-70
2023/01/26 10:35:24;;;;;;;15.40;2.85;;;13.40;99.90;;;;;;5059612;28;20043;-71
2023/01/26 10:37:55;;;;;;;11.95;2.22;;;12.90;99.90;;;;;;5070874;28;20082;-70
2023/01/26 10:40:20;;;;;;;20.85;3.28;;;12.40;99.90;;;;;;5071347;28;20032;-69
2023/01/26 10:42:57;;;;;;;20.13;3.38;;;11.90;99.90;;;;;;5069961;28;20384;-69
2023/01/26 10:45:30;;;;;;;16.38;2.75;;;11.40;99.90;;;;;;5071938;28;20476;-71
2023/01/26 10:48:03;;;;;;;17.98;2.58;;;11.00;99.90;;;;;;5071505;28;20464;-72
2023/01/26 10:50:31;;;;;;;19.55;3.00;;;10.80;99.90;;;;;;5071444;28;20032;-71
2023/01/26 10:52:59;;;;;;;19.25;2.60;;;10.70;99.90;;;;;;5067771;28;20206;-70
2023/01/26 10:55:25;;;;;;;17.70;2.60;;;10.60;99.90;;;;;;5065196;28;20060;-70
2023/01/26 10:57:53;;;;;;;18.13;2.50;;;10.60;99.90;;;;;;5067419;28;20099;-72
2023/01/26 11:00:25;;;;;;;16.00;2.67;;;10.60;99.90;;;;;;5071746;28;20024;-72
2023/01/26 11:03:02;;;;;;;13.25;2.28;;;10.60;99.90;;;;;;5070603;28;20388;-72
2023/01/26 11:05:28;;;;;;;20.00;2.40;;;10.70;99.90;;;;;;5063934;28;20025;-71
2023/01/26 11:07:59;;;;;;;15.45;2.35;;;10.80;99.90;;;;;;5052075;28;20079;-72
2023/01/26 11:10:32;;;;;;;17.10;2.40;;;10.80;99.90;;;;;;5059327;28;20104;-70
2023/01/26 11:13:15;;;;;;;14.57;2.58;;;10.90;99.90;;;;;;5058157;28;20032;-71
2023/01/26 11:15:43;;;;;;;17.42;2.42;;;10.90;99.90;;;;;;5054828;28;20022;-70
2023/01/26 11:18:44;;;;;;;16.00;2.70;;;10.90;99.90;;;;;;5051302;28;20053;-71
2023/01/26 11:21:20;;;;;;;15.23;2.22;;;10.80;99.90;;;;;;5058260;28;20047;-71
2023/01/26 11:24:08;;;;;;;14.75;2.65;;;10.70;99.90;;;;;;5070524;28;20020;-70
2023/01/26 11:26:55;;;;;;;15.55;3.17;;;10.50;99.90;;;;;;5073174;28;20025;-70
2023/01/26 11:30:13;;;;;;;18.15;2.63;;;10.30;99.90;;;;;;5056586;28;20475;-70
2023/01/26 11:32:48;;;;;;;14.18;2.92;;;10.10;99.90;;;;;;4985353;28;20042;-71
2023/01/26 11:35:26;;;;;;;23.02;3.10;;;10.00;99.90;;;;;;5065228;28;20108;-71
2023/01/26 11:38:13;;;;;;;17.02;1.90;;;10.00;99.90;;;;;;5063982;28;20048;-70
2023/01/26 11:40:57;;;;;;;19.92;2.47;;;10.10;99.90;;;;;;5056681;28;20124;-70
2023/01/26 11:43:28;;;;;;;10.13;2.20;;;10.20;99.90;;;;;;5055698;28;20066;-70
2023/01/26 11:46:11;;;;;;;11.87;1.73;;;10.20;99.90;;;;;;5055580;28;20059;-70
2023/01/26 11:49:01;;;;;;;15.98;2.47;;;10.20;99.90;;;;;;5046322;28;20020;-69
2023/01/26 11:51:53;;;;;;;18.20;3.55;;;10.30;99.90;;;;;;5074894;28;20468;-70
2023/01/26 11:54:41;;;;;;;14.63;2.10;;;10.20;99.90;;;;;;5055515;28;20041;-71
2023/01/26 11:57:22;;;;;;;18.50;2.45;;;10.20;99.90;;;;;;5049301;28;20462;-70
2023/01/26 11:59:53;;;;;;;20.33;3.72;;;10.20;99.90;;;;;;5059118;28;20209;-70
2023/01/26 12:02:30;;;;;;;18.80;3.22;;;10.10;99.90;;;;;;5062726;28;20033;-70
2023/01/26 12:05:12;;;;;;;17.80;2.78;;;9.90;99.90;;;;;;5073344;28;20036;-70
2023/01/26 12:07:53;;;;;;;14.13;3.05;;;9.70;99.90;;;;;;5058168;28;20024;-70
2023/01/26 12:10:26;;;;;;;13.55;2.47;;;9.40;99.90;;;;;;5072525;28;20040;-70
2023/01/26 12:13:23;;;;;;;23.05;2.67;;;9.30;99.90;;;;;;5070998;28;20032;-70
2023/01/26 12:15:56;;;;;;;13.35;2.13;;;9.30;99.90;;;;;;5030800;28;20048;-70
2023/01/26 12:18:33;;;;;;;9.88;2.10;;;9.40;99.90;;;;;;5055719;28;20071;-70
2023/01/26 12:21:10;;;;;;;14.80;2.15;;;9.50;99.90;;;;;;5052905;28;20051;-71
2023/01/26 12:23:43;;;;;;;16.35;3.75;;;9.60;99.90;;;;;;5065960;28;20024;-70
2023/01/26 12:26:15;;;;;;;13.70;2.70;;;9.80;99.90;;;;;;5074349;28;20029;-70
2023/01/26 12:28:53;;;;;;;16.95;2.10;;;10.00;99.90;;;;;;5061887;28;20120;-70
2023/01/26 12:31:26;;;;;;;12.43;2.03;;;10.20;99.90;;;;;;5058972;28;20044;-70
2023/01/26 12:33:54;;;;;;;17.25;2.25;;;10.20;99.90;;;;;;5071432;28;20098;-70
2023/01/26 12:36:26;;;;;;;10.95;2.13;;;10.30;99.90;;;;;;5090985;28;20687;-70
2023/01/26 12:39:44;;;;;;;13.98;1.98;;;10.30;99.90;;;;;;5080157;28;20056;-70
2023/01/26 12:42:19;;;;;;;17.73;3.10;;;10.40;99.90;;;;;;5054978;28;20079;-69
2023/01/26 12:44:55;;;;;;;11.75;1.90;;;10.50;99.90;;;;;;5060826;28;20033;-70
2023/01/26 12:47:35;;;;;;;17.25;1.92;;;10.70;99.90;;;;;;5055064;28;20039;-70
2023/01/26 12:50:45;;;;;;;10.13;2.00;;;10.90;99.90;;;;;;5054060;28;20017;-71
2023/01/26 12:53:32;;;;;;;12.25;1.80;;;11.00;99.90;;;;;;5068950;28;20029;-69
2023/01/26 12:56:14;;;;;;;10.80;3.15;;;11.00;99.90;;;;;;5051820;28;20065;-70
2023/01/26 12:58:45;;;;;;;15.80;2.13;;;11.00;99.90;;;;;;5068823;28;20392;-70
2023/01/26 13:01:14;;;;;;;13.52;2.40;;;10.90;99.90;;;;;;5062160;28;20070;-69
2023/01/26 13:04:07;;;;;;;12.82;2.08;;;10.70;99.90;;;;;;5053068;28;20043;-70
2023/01/26 13:06:32;;;;;;;;;;;10.60;99.90;;;;;;5054901;28;20025;-70
2023/01/26 13:09:00;;;;;;;12.13;1.90;;;10.60;99.90;;;;;;5058505;28;20268;-69
2023/01/26 13:11:43;;;;;;;6.82;1.67;;;10.70;99.90;;;;;;5069602;28;20025;-69
2023/01/26 13:14:55;;;;;;;12.50;2.40;;;10.70;99.90;;;;;;5054208;28;20091;-70
2023/01/26 13:17:22;;;;;;;12.15;2.05;;;10.80;99.90;;;;;;5038303;28;20488;-70
2023/01/26 13:19:52;;;;;;;9.13;1.52;;;10.70;99.90;;;;;;5037975;28;20461;-70
2023/01/26 13:22:18;;;;;;;8.40;1.27;;;10.60;99.90;;;;;;5018472;28;20032;-70
2023/01/26 13:24:48;;;;;;;13.02;2.15;;;10.60;99.90;;;;;;5049513;28;20028;-70
2023/01/26 13:27:55;;;;;;;14.45;2.55;;;10.50;99.90;;;;;;5033496;28;20036;-70
2023/01/26 13:30:21;;;;;;;13.65;2.78;;;10.40;99.90;;;;;;5043371;28;20045;-70
2023/01/26 13:32:46;;;;;;;11.98;1.75;;;10.20;99.90;;;;;;5039941;28;20116;-70
2023/01/26 13:35:13;;;;;;;15.43;2.30;;;9.90;99.90;;;;;;5043558;28;20033;-70
2023/01/26 13:38:20;;;;;;;8.18;1.73;;;9.60;99.90;;;;;;5052885;28;20021;-70
2023/01/26 13:40:49;;;;;;;7.15;1.60;;;9.30;99.90;;;;;;5002845;28;20132;-69
2023/01/26 13:43:39;;;;;;;13.32;1.73;;;9.10;99.90;;;;;;5050611;28;20058;-69
2023/01/26 13:46:18;;;;;;;10.65;1.40;;;8.90;99.90;;;;;;5033300;28;20064;-70